sensor_id;sensor_type;location;lat;lon;timestamp;P1;durP1;ratioP1;P2;durP2;ratioP2
9334;SDS011;4706;41.844;26.082;2023-02-24T00:01:15;7.18;;;3.80;;
9334;SDS011;4706;41.844;26.082;2023-02-24T00:03:52;5.05;;;4.47;;
9334;SDS011;4706;41.844;26.082;2023-02-24T00:06:18;8.68;;;4.60;;
9334;SDS011;4706;41.844;26.082;2023-02-24T00:08:44;5.90;;;4.50;;
9334;SDS011;4706;41.844;26.082;2023-02-24T00:11:10;5.65;;;3.55;;
9334;SDS011;4706;41.844;26.082;2023-02-24T00:13:38;6.03;;;3.25;;
9334;SDS011;4706;41.844;26.082;2023-02-24T00:16:04;7.50;;;4.15;;
9334;SDS011;4706;41.844;26.082;2023-02-24T00:18:30;5.95;;;3.80;;
9334;SDS011;4706;41.844;26.082;2023-02-24T00:21:30;5.80;;;3.65;;
9334;SDS011;4706;41.844;26.082;2023-02-24T00:23:48;8.88;;;4.88;;
9334;SDS011;4706;41.844;26.082;2023-02-24T00:26:14;12.13;;;4.30;;
9334;SDS011;4706;41.844;26.082;2023-02-24T00:28:41;7.35;;;4.28;;
9334;SDS011;4706;41.844;26.082;2023-02-24T00:31:08;8.77;;;3.88;;
9334;SDS011;4706;41.844;26.082;2023-02-24T00:33:38;5.93;;;3.60;;
9334;SDS011;4706;41.844;26.082;2023-02-24T00:38:33;5.57;;;3.95;;
9334;SDS011;4706;41.844;26.082;2023-02-24T00:41:09;6.60;;;3.70;;
9334;SDS011;4706;41.844;26.082;2023-02-24T00:43:39;8.90;;;4.50;;
9334;SDS011;4706;41.844;26.082;2023-02-24T00:46:05;9.07;;;4.55;;
9334;SDS011;4706;41.844;26.082;2023-02-24T00:48:38;7.82;;;4.30;;
9334;SDS011;4706;41.844;26.082;2023-02-24T00:51:08;7.90;;;4.78;;
9334;SDS011;4706;41.844;26.082;2023-02-24T00:53:35;6.85;;;4.80;;
9334;SDS011;4706;41.844;26.082;2023-02-24T00:56:03;7.40;;;4.00;;
9334;SDS011;4706;41.844;26.082;2023-02-24T00:58:34;8.35;;;4.35;;
9334;SDS011;4706;41.844;26.082;2023-02-24T01:01:00;6.95;;;4.40;;
9334;SDS011;4706;41.844;26.082;2023-02-24T01:03:26;6.93;;;4.47;;
9334;SDS011;4706;41.844;26.082;2023-02-24T01:05:52;6.82;;;4.47;;
9334;SDS011;4706;41.844;26.082;2023-02-24T01:08:18;7.80;;;4.18;;
9334;SDS011;4706;41.844;26.082;2023-02-24T01:10:58;7.45;;;3.80;;
9334;SDS011;4706;41.844;26.082;2023-02-24T01:13:43;8.20;;;4.05;;
9334;SDS011;4706;41.844;26.082;2023-02-24T01:16:09;7.50;;;4.35;;
9334;SDS011;4706;41.844;26.082;2023-02-24T01:18:37;8.20;;;4.63;;
9334;SDS011;4706;41.844;26.082;2023-02-24T01:21:03;8.43;;;4.95;;
9334;SDS011;4706;41.844;26.082;2023-02-24T01:23:28;9.82;;;5.47;;
9334;SDS011;4706;41.844;26.082;2023-02-24T01:25:54;9.93;;;5.97;;
9334;SDS011;4706;41.844;26.082;2023-02-24T01:28:26;8.75;;;5.05;;
9334;SDS011;4706;41.844;26.082;2023-02-24T01:30:52;6.55;;;4.40;;
9334;SDS011;4706;41.844;26.082;2023-02-24T01:33:19;9.65;;;4.35;;
9334;SDS011;4706;41.844;26.082;2023-02-24T01:35:46;6.47;;;3.97;;
9334;SDS011;4706;41.844;26.082;2023-02-24T01:38:12;11.48;;;4.32;;
9334;SDS011;4706;41.844;26.082;2023-02-24T01:40:38;9.45;;;4.75;;
9334;SDS011;4706;41.844;26.082;2023-02-24T01:43:04;8.43;;;4.47;;
9334;SDS011;4706;41.844;26.082;2023-02-24T01:45:33;8.77;;;4.70;;
9334;SDS011;4706;41.844;26.082;2023-02-24T01:48:05;9.60;;;4.90;;
9334;SDS011;4706;41.844;26.082;2023-02-24T01:50:33;9.25;;;5.70;;
9334;SDS011;4706;41.844;26.082;2023-02-24T01:53:03;9.18;;;4.65;;
9334;SDS011;4706;41.844;26.082;2023-02-24T01:55:40;8.18;;;4.40;;
9334;SDS011;4706;41.844;26.082;2023-02-24T01:58:32;8.15;;;3.90;;
9334;SDS011;4706;41.844;26.082;2023-02-24T02:00:57;5.93;;;4.10;;
9334;SDS011;4706;41.844;26.082;2023-02-24T02:03:25;7.18;;;4.35;;
9334;SDS011;4706;41.844;26.082;2023-02-24T02:06:01;9.60;;;5.32;;
9334;SDS011;4706;41.844;26.082;2023-02-24T02:08:30;9.25;;;6.10;;
9334;SDS011;4706;41.844;26.082;2023-02-24T02:10:57;12.10;;;7.03;;
9334;SDS011;4706;41.844;26.082;2023-02-24T02:13:27;8.82;;;6.25;;
9334;SDS011;4706;41.844;26.082;2023-02-24T02:15:57;10.38;;;5.57;;
9334;SDS011;4706;41.844;26.082;2023-02-24T02:18:40;10.55;;;5.45;;
9334;SDS011;4706;41.844;26.082;2023-02-24T02:24:22;7.35;;;4.85;;
9334;SDS011;4706;41.844;26.082;2023-02-24T02:40:49;10.75;;;5.90;;
9334;SDS011;4706;41.844;26.082;2023-02-24T02:45:57;11.75;;;5.88;;
9334;SDS011;4706;41.844;26.082;2023-02-24T02:48:33;10.52;;;5.70;;
9334;SDS011;4706;41.844;26.082;2023-02-24T02:51:12;8.60;;;5.82;;
9334;SDS011;4706;41.844;26.082;2023-02-24T02:53:55;11.27;;;6.10;;
9334;SDS011;4706;41.844;26.082;2023-02-24T02:56:50;11.60;;;6.30;;
9334;SDS011;4706;41.844;26.082;2023-02-24T02:59:24;9.18;;;6.25;;
9334;SDS011;4706;41.844;26.082;2023-02-24T03:01:53;11.38;;;6.10;;
9334;SDS011;4706;41.844;26.082;2023-02-24T03:04:25;8.73;;;5.88;;
9334;SDS011;4706;41.844;26.082;2023-02-24T03:06:58;10.52;;;7.55;;
9334;SDS011;4706;41.844;26.082;2023-02-24T03:09:27;11.75;;;7.05;;
9334;SDS011;4706;41.844;26.082;2023-02-24T03:11:58;7.72;;;5.32;;
9334;SDS011;4706;41.844;26.082;2023-02-24T03:14:30;9.73;;;5.43;;
9334;SDS011;4706;41.844;26.082;2023-02-24T03:16:59;8.02;;;4.80;;
9334;SDS011;4706;41.844;26.082;2023-02-24T03:19:31;8.25;;;5.18;;
9334;SDS011;4706;41.844;26.082;2023-02-24T03:22:06;10.10;;;4.90;;
9334;SDS011;4706;41.844;26.082;2023-02-24T03:24:37;6.85;;;4.35;;
9334;SDS011;4706;41.844;26.082;2023-02-24T03:27:17;9.63;;;5.13;;
9334;SDS011;4706;41.844;26.082;2023-02-24T03:29:54;9.18;;;4.18;;
9334;SDS011;4706;41.844;26.082;2023-02-24T03:32:28;9.48;;;5.28;;
9334;SDS011;4706;41.844;26.082;2023-02-24T03:37:28;8.57;;;6.28;;
9334;SDS011;4706;41.844;26.082;2023-02-24T03:39:56;8.95;;;5.78;;
9334;SDS011;4706;41.844;26.082;2023-02-24T03:42:24;7.22;;;4.90;;
9334;SDS011;4706;41.844;26.082;2023-02-24T03:44:54;8.52;;;4.35;;
9334;SDS011;4706;41.844;26.082;2023-02-24T03:47:22;10.98;;;5.22;;
9334;SDS011;4706;41.844;26.082;2023-02-24T03:49:48;9.40;;;5.30;;
9334;SDS011;4706;41.844;26.082;2023-02-24T03:52:19;8.75;;;5.88;;
9334;SDS011;4706;41.844;26.082;2023-02-24T03:55:06;9.00;;;5.32;;
9334;SDS011;4706;41.844;26.082;2023-02-24T04:00:23;11.52;;;5.45;;
9334;SDS011;4706;41.844;26.082;2023-02-24T04:03:13;7.47;;;4.68;;
9334;SDS011;4706;41.844;26.082;2023-02-24T04:05:45;6.97;;;4.38;;
9334;SDS011;4706;41.844;26.082;2023-02-24T04:08:20;10.25;;;4.35;;
9334;SDS011;4706;41.844;26.082;2023-02-24T04:10:57;7.63;;;4.55;;
9334;SDS011;4706;41.844;26.082;2023-02-24T04:16:16;8.00;;;4.47;;
9334;SDS011;4706;41.844;26.082;2023-02-24T04:18:52;8.05;;;4.55;;
9334;SDS011;4706;41.844;26.082;2023-02-24T04:21:22;8.68;;;4.45;;
9334;SDS011;4706;41.844;26.082;2023-02-24T04:23:50;9.30;;;4.75;;
9334;SDS011;4706;41.844;26.082;2023-02-24T04:26:17;8.23;;;4.60;;
9334;SDS011;4706;41.844;26.082;2023-02-24T04:28:44;6.22;;;4.50;;
9334;SDS011;4706;41.844;26.082;2023-02-24T04:31:12;9.40;;;5.03;;
9334;SDS011;4706;41.844;26.082;2023-02-24T04:33:43;12.00;;;5.43;;
9334;SDS011;4706;41.844;26.082;2023-02-24T04:36:15;11.25;;;6.15;;
9334;SDS011;4706;41.844;26.082;2023-02-24T04:38:42;9.30;;;5.40;;
9334;SDS011;4706;41.844;26.082;2023-02-24T04:41:10;10.77;;;6.05;;
9334;SDS011;4706;41.844;26.082;2023-02-24T04:43:36;9.20;;;5.65;;
9334;SDS011;4706;41.844;26.082;2023-02-24T04:46:02;9.32;;;6.57;;
9334;SDS011;4706;41.844;26.082;2023-02-24T04:48:32;9.27;;;7.13;;
9334;SDS011;4706;41.844;26.082;2023-02-24T04:50:59;12.45;;;6.45;;
9334;SDS011;4706;41.844;26.082;2023-02-24T04:53:27;9.25;;;5.63;;
9334;SDS011;4706;41.844;26.082;2023-02-24T04:55:53;10.48;;;5.00;;
9334;SDS011;4706;41.844;26.082;2023-02-24T04:58:21;10.13;;;5.60;;
9334;SDS011;4706;41.844;26.082;2023-02-24T05:00:50;8.63;;;4.82;;
9334;SDS011;4706;41.844;26.082;2023-02-24T05:03:22;12.27;;;6.93;;
9334;SDS011;4706;41.844;26.082;2023-02-24T05:05:53;15.88;;;9.85;;
9334;SDS011;4706;41.844;26.082;2023-02-24T05:08:24;16.58;;;10.55;;
9334;SDS011;4706;41.844;26.082;2023-02-24T05:10:51;13.20;;;8.77;;
9334;SDS011;4706;41.844;26.082;2023-02-24T05:13:22;15.15;;;11.30;;
9334;SDS011;4706;41.844;26.082;2023-02-24T05:15:51;17.02;;;11.07;;
9334;SDS011;4706;41.844;26.082;2023-02-24T05:18:18;23.90;;;13.13;;
9334;SDS011;4706;41.844;26.082;2023-02-24T05:20:49;18.17;;;10.52;;
9334;SDS011;4706;41.844;26.082;2023-02-24T05:23:38;14.15;;;9.63;;
9334;SDS011;4706;41.844;26.082;2023-02-24T05:26:08;11.38;;;8.35;;
9334;SDS011;4706;41.844;26.082;2023-02-24T05:28:40;16.92;;;11.98;;
9334;SDS011;4706;41.844;26.082;2023-02-24T05:31:07;26.02;;;17.60;;
9334;SDS011;4706;41.844;26.082;2023-02-24T05:33:48;47.47;;;26.33;;
9334;SDS011;4706;41.844;26.082;2023-02-24T05:36:21;30.75;;;18.25;;
9334;SDS011;4706;41.844;26.082;2023-02-24T05:38:50;24.95;;;13.98;;
9334;SDS011;4706;41.844;26.082;2023-02-24T05:41:19;19.05;;;12.50;;
9334;SDS011;4706;41.844;26.082;2023-02-24T05:43:50;18.15;;;13.23;;
9334;SDS011;4706;41.844;26.082;2023-02-24T05:46:22;24.67;;;19.33;;
9334;SDS011;4706;41.844;26.082;2023-02-24T05:48:55;30.13;;;18.75;;
9334;SDS011;4706;41.844;26.082;2023-02-24T05:51:25;21.70;;;16.13;;
9334;SDS011;4706;41.844;26.082;2023-02-24T05:53:59;31.50;;;20.85;;
9334;SDS011;4706;41.844;26.082;2023-02-24T05:56:29;28.35;;;19.13;;
9334;SDS011;4706;41.844;26.082;2023-02-24T05:59:03;27.90;;;18.92;;
9334;SDS011;4706;41.844;26.082;2023-02-24T06:01:33;34.42;;;21.42;;
9334;SDS011;4706;41.844;26.082;2023-02-24T06:04:01;32.97;;;23.02;;
9334;SDS011;4706;41.844;26.082;2023-02-24T06:06:32;32.50;;;21.80;;
9334;SDS011;4706;41.844;26.082;2023-02-24T06:08:59;29.05;;;21.77;;
9334;SDS011;4706;41.844;26.082;2023-02-24T06:11:31;31.73;;;20.80;;
9334;SDS011;4706;41.844;26.082;2023-02-24T06:13:57;21.65;;;14.18;;
9334;SDS011;4706;41.844;26.082;2023-02-24T06:16:23;27.58;;;21.25;;
9334;SDS011;4706;41.844;26.082;2023-02-24T06:18:51;28.35;;;21.20;;
9334;SDS011;4706;41.844;26.082;2023-02-24T06:21:17;26.35;;;21.20;;
9334;SDS011;4706;41.844;26.082;2023-02-24T06:23:43;32.30;;;22.88;;
9334;SDS011;4706;41.844;26.082;2023-02-24T06:26:11;32.83;;;24.40;;
9334;SDS011;4706;41.844;26.082;2023-02-24T06:28:40;38.58;;;31.17;;
9334;SDS011;4706;41.844;26.082;2023-02-24T06:31:08;42.67;;;35.83;;
9334;SDS011;4706;41.844;26.082;2023-02-24T06:33:35;45.08;;;32.35;;
9334;SDS011;4706;41.844;26.082;2023-02-24T06:36:01;35.85;;;30.20;;
9334;SDS011;4706;41.844;26.082;2023-02-24T06:38:28;41.17;;;32.20;;
9334;SDS011;4706;41.844;26.082;2023-02-24T06:41:01;36.45;;;27.20;;
9334;SDS011;4706;41.844;26.082;2023-02-24T06:43:31;30.27;;;23.52;;
9334;SDS011;4706;41.844;26.082;2023-02-24T06:45:57;39.55;;;26.77;;
9334;SDS011;4706;41.844;26.082;2023-02-24T06:48:23;35.97;;;25.17;;
9334;SDS011;4706;41.844;26.082;2023-02-24T06:50:49;24.92;;;20.08;;
9334;SDS011;4706;41.844;26.082;2023-02-24T06:53:16;19.85;;;13.32;;
9334;SDS011;4706;41.844;26.082;2023-02-24T06:55:43;19.80;;;11.95;;
9334;SDS011;4706;41.844;26.082;2023-02-24T06:58:13;11.05;;;6.85;;
9334;SDS011;4706;41.844;26.082;2023-02-24T07:00:42;28.20;;;19.63;;
9334;SDS011;4706;41.844;26.082;2023-02-24T07:03:21;15.43;;;9.88;;
9334;SDS011;4706;41.844;26.082;2023-02-24T07:05:52;13.15;;;8.27;;
9334;SDS011;4706;41.844;26.082;2023-02-24T07:08:35;9.90;;;7.18;;
9334;SDS011;4706;41.844;26.082;2023-02-24T07:11:01;11.18;;;7.40;;
9334;SDS011;4706;41.844;26.082;2023-02-24T07:13:30;11.32;;;7.72;;
9334;SDS011;4706;41.844;26.082;2023-02-24T07:15:58;10.52;;;7.28;;
9334;SDS011;4706;41.844;26.082;2023-02-24T07:18:31;13.20;;;5.78;;
9334;SDS011;4706;41.844;26.082;2023-02-24T07:21:02;11.35;;;6.82;;
9334;SDS011;4706;41.844;26.082;2023-02-24T07:23:29;9.90;;;6.53;;
9334;SDS011;4706;41.844;26.082;2023-02-24T07:25:56;8.55;;;5.43;;
9334;SDS011;4706;41.844;26.082;2023-02-24T07:28:23;8.70;;;5.68;;
9334;SDS011;4706;41.844;26.082;2023-02-24T07:30:49;9.27;;;4.10;;
9334;SDS011;4706;41.844;26.082;2023-02-24T07:33:16;8.68;;;4.63;;
9334;SDS011;4706;41.844;26.082;2023-02-24T07:35:49;8.68;;;4.55;;
9334;SDS011;4706;41.844;26.082;2023-02-24T07:38:16;7.35;;;4.82;;
9334;SDS011;4706;41.844;26.082;2023-02-24T07:40:47;9.60;;;4.53;;
9334;SDS011;4706;41.844;26.082;2023-02-24T07:43:14;10.02;;;5.38;;
9334;SDS011;4706;41.844;26.082;2023-02-24T07:45:40;9.30;;;4.35;;
9334;SDS011;4706;41.844;26.082;2023-02-24T07:48:06;9.18;;;4.30;;
9334;SDS011;4706;41.844;26.082;2023-02-24T07:50:32;6.63;;;3.95;;
9334;SDS011;4706;41.844;26.082;2023-02-24T07:52:58;10.23;;;4.93;;
9334;SDS011;4706;41.844;26.082;2023-02-24T07:55:23;7.18;;;4.30;;
9334;SDS011;4706;41.844;26.082;2023-02-24T07:57:55;8.68;;;4.72;;
9334;SDS011;4706;41.844;26.082;2023-02-24T08:00:21;9.52;;;5.40;;
9334;SDS011;4706;41.844;26.082;2023-02-24T08:02:53;6.20;;;4.20;;
9334;SDS011;4706;41.844;26.082;2023-02-24T08:05:20;8.63;;;4.57;;
9334;SDS011;4706;41.844;26.082;2023-02-24T08:07:48;10.88;;;6.65;;
9334;SDS011;4706;41.844;26.082;2023-02-24T08:10:17;7.53;;;4.95;;
9334;SDS011;4706;41.844;26.082;2023-02-24T08:12:53;10.82;;;5.65;;
9334;SDS011;4706;41.844;26.082;2023-02-24T08:15:24;7.55;;;4.47;;
9334;SDS011;4706;41.844;26.082;2023-02-24T08:17:58;9.38;;;4.75;;
9334;SDS011;4706;41.844;26.082;2023-02-24T08:20:25;10.13;;;4.55;;
9334;SDS011;4706;41.844;26.082;2023-02-24T08:22:54;7.72;;;4.50;;
9334;SDS011;4706;41.844;26.082;2023-02-24T08:25:24;8.48;;;4.32;;
9334;SDS011;4706;41.844;26.082;2023-02-24T08:28:00;8.63;;;4.57;;
9334;SDS011;4706;41.844;26.082;2023-02-24T08:30:30;8.85;;;4.50;;
9334;SDS011;4706;41.844;26.082;2023-02-24T08:33:02;9.07;;;4.70;;
9334;SDS011;4706;41.844;26.082;2023-02-24T08:35:30;6.38;;;3.72;;
9334;SDS011;4706;41.844;26.082;2023-02-24T08:38:10;6.93;;;4.45;;
9334;SDS011;4706;41.844;26.082;2023-02-24T08:40:45;6.93;;;4.38;;
9334;SDS011;4706;41.844;26.082;2023-02-24T08:43:17;6.55;;;3.95;;
9334;SDS011;4706;41.844;26.082;2023-02-24T08:46:04;9.23;;;5.05;;
9334;SDS011;4706;41.844;26.082;2023-02-24T08:48:46;10.32;;;4.85;;
9334;SDS011;4706;41.844;26.082;2023-02-24T08:51:15;10.15;;;4.40;;
9334;SDS011;4706;41.844;26.082;2023-02-24T08:53:47;6.45;;;3.85;;
9334;SDS011;4706;41.844;26.082;2023-02-24T08:56:18;9.05;;;4.70;;
9334;SDS011;4706;41.844;26.082;2023-02-24T08:58:48;8.70;;;4.68;;
9334;SDS011;4706;41.844;26.082;2023-02-24T09:01:29;7.97;;;4.50;;
9334;SDS011;4706;41.844;26.082;2023-02-24T09:04:04;6.50;;;5.18;;
9334;SDS011;4706;41.844;26.082;2023-02-24T09:09:07;9.48;;;4.88;;
9334;SDS011;4706;41.844;26.082;2023-02-24T09:11:45;6.78;;;4.10;;
9334;SDS011;4706;41.844;26.082;2023-02-24T09:14:14;5.45;;;4.65;;
9334;SDS011;4706;41.844;26.082;2023-02-24T09:16:45;7.57;;;4.47;;
9334;SDS011;4706;41.844;26.082;2023-02-24T09:19:37;8.20;;;4.85;;
9334;SDS011;4706;41.844;26.082;2023-02-24T09:22:11;7.78;;;4.32;;
9334;SDS011;4706;41.844;26.082;2023-02-24T09:24:58;9.52;;;4.95;;
9334;SDS011;4706;41.844;26.082;2023-02-24T09:28:09;8.55;;;4.47;;
9334;SDS011;4706;41.844;26.082;2023-02-24T09:30:45;8.18;;;4.18;;
9334;SDS011;4706;41.844;26.082;2023-02-24T09:35:43;10.18;;;4.90;;
9334;SDS011;4706;41.844;26.082;2023-02-24T09:38:11;8.50;;;5.35;;
9334;SDS011;4706;41.844;26.082;2023-02-24T09:40:44;8.85;;;4.68;;
9334;SDS011;4706;41.844;26.082;2023-02-24T09:45:50;7.50;;;4.47;;
9334;SDS011;4706;41.844;26.082;2023-02-24T09:48:41;8.07;;;4.50;;
9334;SDS011;4706;41.844;26.082;2023-02-24T09:51:18;6.95;;;4.95;;
9334;SDS011;4706;41.844;26.082;2023-02-24T09:53:46;7.88;;;4.32;;
9334;SDS011;4706;41.844;26.082;2023-02-24T09:56:25;11.13;;;6.75;;
9334;SDS011;4706;41.844;26.082;2023-02-24T09:59:21;6.57;;;5.80;;
9334;SDS011;4706;41.844;26.082;2023-02-24T10:02:17;9.43;;;5.03;;
9334;SDS011;4706;41.844;26.082;2023-02-24T10:07:51;6.88;;;4.65;;
9334;SDS011;4706;41.844;26.082;2023-02-24T10:10:30;11.13;;;5.38;;
9334;SDS011;4706;41.844;26.082;2023-02-24T10:15:37;10.38;;;4.90;;
9334;SDS011;4706;41.844;26.082;2023-02-24T10:18:29;11.38;;;5.50;;
9334;SDS011;4706;41.844;26.082;2023-02-24T10:26:54;8.80;;;5.00;;
9334;SDS011;4706;41.844;26.082;2023-02-24T10:29:44;8.05;;;4.95;;
9334;SDS011;4706;41.844;26.082;2023-02-24T10:34:58;8.20;;;5.57;;
9334;SDS011;4706;41.844;26.082;2023-02-24T10:37:24;8.30;;;5.82;;
9334;SDS011;4706;41.844;26.082;2023-02-24T10:39:59;7.97;;;5.90;;
9334;SDS011;4706;41.844;26.082;2023-02-24T10:42:34;8.70;;;5.75;;
9334;SDS011;4706;41.844;26.082;2023-02-24T10:45:07;7.95;;;5.55;;
9334;SDS011;4706;41.844;26.082;2023-02-24T10:47:37;9.73;;;5.60;;
9334;SDS011;4706;41.844;26.082;2023-02-24T10:52:50;6.63;;;4.55;;
9334;SDS011;4706;41.844;26.082;2023-02-24T10:55:38;9.60;;;5.60;;
9334;SDS011;4706;41.844;26.082;2023-02-24T10:58:12;7.95;;;5.28;;
9334;SDS011;4706;41.844;26.082;2023-02-24T11:01:12;8.27;;;5.60;;
9334;SDS011;4706;41.844;26.082;2023-02-24T11:03:52;9.27;;;5.65;;
9334;SDS011;4706;41.844;26.082;2023-02-24T11:06:29;8.52;;;5.72;;
9334;SDS011;4706;41.844;26.082;2023-02-24T11:09:18;8.63;;;5.88;;
9334;SDS011;4706;41.844;26.082;2023-02-24T11:11:54;9.77;;;6.13;;
9334;SDS011;4706;41.844;26.082;2023-02-24T11:17:48;10.93;;;6.22;;
9334;SDS011;4706;41.844;26.082;2023-02-24T11:23:00;8.95;;;5.28;;
9334;SDS011;4706;41.844;26.082;2023-02-24T11:25:35;12.90;;;6.70;;
9334;SDS011;4706;41.844;26.082;2023-02-24T11:42:08;10.02;;;5.80;;
9334;SDS011;4706;41.844;26.082;2023-02-24T11:47:47;11.05;;;6.15;;
9334;SDS011;4706;41.844;26.082;2023-02-24T11:52:57;12.32;;;6.88;;
9334;SDS011;4706;41.844;26.082;2023-02-24T11:55:34;9.38;;;5.82;;
9334;SDS011;4706;41.844;26.082;2023-02-24T11:58:07;7.43;;;5.78;;
9334;SDS011;4706;41.844;26.082;2023-02-24T12:00:39;12.80;;;6.82;;
9334;SDS011;4706;41.844;26.082;2023-02-24T12:06:35;10.35;;;6.30;;
9334;SDS011;4706;41.844;26.082;2023-02-24T12:09:22;10.02;;;6.93;;
9334;SDS011;4706;41.844;26.082;2023-02-24T12:12:00;8.77;;;6.28;;
9334;SDS011;4706;41.844;26.082;2023-02-24T12:14:32;8.18;;;6.60;;
9334;SDS011;4706;41.844;26.082;2023-02-24T12:17:15;7.68;;;6.03;;
9334;SDS011;4706;41.844;26.082;2023-02-24T12:20:08;11.40;;;7.97;;
9334;SDS011;4706;41.844;26.082;2023-02-24T12:25:13;7.70;;;6.18;;
9334;SDS011;4706;41.844;26.082;2023-02-24T12:27:42;9.45;;;6.05;;
9334;SDS011;4706;41.844;26.082;2023-02-24T12:39:01;7.57;;;5.70;;
9334;SDS011;4706;41.844;26.082;2023-02-24T12:44:48;11.25;;;7.43;;
9334;SDS011;4706;41.844;26.082;2023-02-24T12:58:13;8.05;;;6.60;;
9334;SDS011;4706;41.844;26.082;2023-02-24T13:00:48;14.65;;;9.77;;
9334;SDS011;4706;41.844;26.082;2023-02-24T13:06:22;7.43;;;6.50;;
9334;SDS011;4706;41.844;26.082;2023-02-24T13:08:58;7.72;;;6.40;;
9334;SDS011;4706;41.844;26.082;2023-02-24T13:14:26;9.13;;;7.18;;
9334;SDS011;4706;41.844;26.082;2023-02-24T13:17:05;10.43;;;7.25;;
9334;SDS011;4706;41.844;26.082;2023-02-24T13:19:42;10.13;;;7.05;;
9334;SDS011;4706;41.844;26.082;2023-02-24T13:24:37;8.93;;;7.03;;
9334;SDS011;4706;41.844;26.082;2023-02-24T13:29:49;9.80;;;7.00;;
9334;SDS011;4706;41.844;26.082;2023-02-24T13:32:30;12.35;;;7.53;;
9334;SDS011;4706;41.844;26.082;2023-02-24T13:34:57;7.85;;;7.05;;
9334;SDS011;4706;41.844;26.082;2023-02-24T13:37:30;10.20;;;6.45;;
9334;SDS011;4706;41.844;26.082;2023-02-24T13:42:56;8.43;;;7.55;;
9334;SDS011;4706;41.844;26.082;2023-02-24T13:45:34;10.80;;;6.95;;
9334;SDS011;4706;41.844;26.082;2023-02-24T13:56:23;11.80;;;9.65;;
9334;SDS011;4706;41.844;26.082;2023-02-24T14:01:21;9.90;;;6.97;;
9334;SDS011;4706;41.844;26.082;2023-02-24T14:06:44;7.55;;;6.50;;
9334;SDS011;4706;41.844;26.082;2023-02-24T14:09:15;13.10;;;6.60;;
9334;SDS011;4706;41.844;26.082;2023-02-24T14:11:48;11.75;;;8.68;;
9334;SDS011;4706;41.844;26.082;2023-02-24T14:14:15;12.27;;;7.80;;
9334;SDS011;4706;41.844;26.082;2023-02-24T14:16:43;11.70;;;8.35;;
9334;SDS011;4706;41.844;26.082;2023-02-24T14:19:13;12.80;;;10.85;;
9334;SDS011;4706;41.844;26.082;2023-02-24T14:21:51;9.98;;;8.25;;
9334;SDS011;4706;41.844;26.082;2023-02-24T14:24:18;13.45;;;8.63;;
9334;SDS011;4706;41.844;26.082;2023-02-24T14:26:51;8.38;;;6.82;;
9334;SDS011;4706;41.844;26.082;2023-02-24T14:29:25;9.82;;;6.82;;
9334;SDS011;4706;41.844;26.082;2023-02-24T14:31:56;8.45;;;7.45;;
9334;SDS011;4706;41.844;26.082;2023-02-24T14:34:24;12.70;;;7.50;;
9334;SDS011;4706;41.844;26.082;2023-02-24T14:36:55;8.38;;;7.40;;
9334;SDS011;4706;41.844;26.082;2023-02-24T14:39:23;8.93;;;7.00;;
9334;SDS011;4706;41.844;26.082;2023-02-24T14:41:51;15.57;;;9.75;;
9334;SDS011;4706;41.844;26.082;2023-02-24T14:44:29;10.98;;;7.22;;
9334;SDS011;4706;41.844;26.082;2023-02-24T14:46:56;10.32;;;7.40;;
9334;SDS011;4706;41.844;26.082;2023-02-24T14:49:27;8.23;;;6.13;;
9334;SDS011;4706;41.844;26.082;2023-02-24T14:52:05;9.23;;;7.72;;
9334;SDS011;4706;41.844;26.082;2023-02-24T14:57:49;11.35;;;7.78;;
9334;SDS011;4706;41.844;26.082;2023-02-24T15:00:33;16.42;;;12.93;;
9334;SDS011;4706;41.844;26.082;2023-02-24T15:03:09;15.20;;;10.75;;
9334;SDS011;4706;41.844;26.082;2023-02-24T15:05:43;16.60;;;10.95;;
9334;SDS011;4706;41.844;26.082;2023-02-24T15:08:15;10.45;;;7.85;;
9334;SDS011;4706;41.844;26.082;2023-02-24T15:11:16;20.40;;;11.77;;
9334;SDS011;4706;41.844;26.082;2023-02-24T15:13:47;20.13;;;12.95;;
9334;SDS011;4706;41.844;26.082;2023-02-24T15:16:27;13.93;;;11.77;;
9334;SDS011;4706;41.844;26.082;2023-02-24T15:18:57;19.50;;;13.30;;
9334;SDS011;4706;41.844;26.082;2023-02-24T15:21:42;13.35;;;10.05;;
9334;SDS011;4706;41.844;26.082;2023-02-24T15:24:19;19.42;;;13.10;;
9334;SDS011;4706;41.844;26.082;2023-02-24T15:27:23;17.52;;;13.38;;
9334;SDS011;4706;41.844;26.082;2023-02-24T15:29:41;18.67;;;12.85;;
9334;SDS011;4706;41.844;26.082;2023-02-24T15:32:17;16.70;;;12.35;;
9334;SDS011;4706;41.844;26.082;2023-02-24T15:34:45;19.95;;;12.75;;
9334;SDS011;4706;41.844;26.082;2023-02-24T15:37:15;13.98;;;11.57;;
9334;SDS011;4706;41.844;26.082;2023-02-24T15:39:41;22.52;;;13.27;;
9334;SDS011;4706;41.844;26.082;2023-02-24T15:42:30;16.50;;;12.77;;
9334;SDS011;4706;41.844;26.082;2023-02-24T15:45:03;15.82;;;13.15;;
9334;SDS011;4706;41.844;26.082;2023-02-24T15:47:49;14.55;;;11.90;;
9334;SDS011;4706;41.844;26.082;2023-02-24T15:50:17;17.38;;;12.38;;
9334;SDS011;4706;41.844;26.082;2023-02-24T15:52:43;16.73;;;11.40;;
9334;SDS011;4706;41.844;26.082;2023-02-24T15:55:15;9.20;;;7.60;;
9334;SDS011;4706;41.844;26.082;2023-02-24T15:57:42;15.35;;;9.85;;
9334;SDS011;4706;41.844;26.082;2023-02-24T16:00:18;13.23;;;10.07;;
9334;SDS011;4706;41.844;26.082;2023-02-24T16:02:45;21.90;;;16.70;;
9334;SDS011;4706;41.844;26.082;2023-02-24T16:05:13;31.05;;;27.75;;
9334;SDS011;4706;41.844;26.082;2023-02-24T16:07:40;27.85;;;24.90;;
9334;SDS011;4706;41.844;26.082;2023-02-24T16:10:13;37.58;;;31.67;;
9334;SDS011;4706;41.844;26.082;2023-02-24T16:12:47;43.75;;;37.92;;
9334;SDS011;4706;41.844;26.082;2023-02-24T16:15:20;45.60;;;40.50;;
9334;SDS011;4706;41.844;26.082;2023-02-24T16:17:54;45.30;;;40.30;;
9334;SDS011;4706;41.844;26.082;2023-02-24T16:20:26;64.22;;;51.05;;
9334;SDS011;4706;41.844;26.082;2023-02-24T16:23:02;237.20;;;160.40;;
9334;SDS011;4706;41.844;26.082;2023-02-24T16:25:29;247.85;;;173.25;;
9334;SDS011;4706;41.844;26.082;2023-02-24T16:28:00;270.83;;;186.20;;
9334;SDS011;4706;41.844;26.082;2023-02-24T16:30:27;251.27;;;178.85;;
9334;SDS011;4706;41.844;26.082;2023-02-24T16:32:57;237.40;;;174.88;;
9334;SDS011;4706;41.844;26.082;2023-02-24T16:35:25;183.35;;;142.48;;
9334;SDS011;4706;41.844;26.082;2023-02-24T16:37:51;94.82;;;84.43;;
9334;SDS011;4706;41.844;26.082;2023-02-24T16:40:24;46.00;;;36.50;;
9334;SDS011;4706;41.844;26.082;2023-02-24T16:42:58;25.75;;;20.67;;
9334;SDS011;4706;41.844;26.082;2023-02-24T16:45:27;22.60;;;15.70;;
9334;SDS011;4706;41.844;26.082;2023-02-24T16:47:54;25.85;;;19.80;;
9334;SDS011;4706;41.844;26.082;2023-02-24T16:50:23;23.20;;;17.27;;
9334;SDS011;4706;41.844;26.082;2023-02-24T16:52:54;17.38;;;14.23;;
9334;SDS011;4706;41.844;26.082;2023-02-24T16:55:19;22.98;;;16.23;;
9334;SDS011;4706;41.844;26.082;2023-02-24T16:57:45;21.17;;;15.57;;
9334;SDS011;4706;41.844;26.082;2023-02-24T17:00:11;30.85;;;19.30;;
9334;SDS011;4706;41.844;26.082;2023-02-24T17:02:39;31.27;;;23.90;;
9334;SDS011;4706;41.844;26.082;2023-02-24T17:05:06;32.97;;;25.77;;
9334;SDS011;4706;41.844;26.082;2023-02-24T17:07:38;47.75;;;37.92;;
9334;SDS011;4706;41.844;26.082;2023-02-24T17:10:04;94.38;;;68.80;;
9334;SDS011;4706;41.844;26.082;2023-02-24T17:12:30;94.32;;;62.42;;
9334;SDS011;4706;41.844;26.082;2023-02-24T17:14:56;97.88;;;68.00;;
9334;SDS011;4706;41.844;26.082;2023-02-24T17:17:23;89.43;;;61.92;;
9334;SDS011;4706;41.844;26.082;2023-02-24T17:19:48;71.63;;;53.83;;
9334;SDS011;4706;41.844;26.082;2023-02-24T17:22:15;61.63;;;46.30;;
9334;SDS011;4706;41.844;26.082;2023-02-24T17:24:41;45.03;;;37.03;;
9334;SDS011;4706;41.844;26.082;2023-02-24T17:27:08;46.75;;;35.50;;
9334;SDS011;4706;41.844;26.082;2023-02-24T17:29:35;57.05;;;42.88;;
9334;SDS011;4706;41.844;26.082;2023-02-24T17:32:00;53.17;;;37.55;;
9334;SDS011;4706;41.844;26.082;2023-02-24T17:34:26;42.95;;;33.80;;
9334;SDS011;4706;41.844;26.082;2023-02-24T17:36:52;44.25;;;34.00;;
9334;SDS011;4706;41.844;26.082;2023-02-24T17:39:17;50.53;;;39.13;;